createdAt,value
2023-03-27T00:02:26.240Z,8.30
2023-03-27T00:04:55.680Z,8.30
2023-03-27T00:07:23.515Z,8.00
2023-03-27T00:09:53.418Z,7.90
2023-03-27T00:12:21.148Z,7.70
2023-03-27T00:14:48.851Z,8.00
2023-03-27T00:17:16.617Z,8.20
2023-03-27T00:19:44.934Z,8.00
2023-03-27T00:22:12.816Z,7.70
2023-03-27T00:24:40.629Z,8.10
2023-03-27T00:27:09.975Z,8.10
2023-03-27T00:29:37.799Z,8.00
2023-03-27T00:32:05.789Z,8.00
2023-03-27T00:34:33.668Z,7.90
2023-03-27T00:37:01.491Z,8.00
2023-03-27T00:39:29.436Z,7.90
2023-03-27T00:41:57.258Z,7.50
2023-03-27T00:44:31.108Z,7.50
2023-03-27T00:46:59.003Z,7.20
2023-03-27T00:49:31.528Z,7.50
2023-03-27T00:52:01.176Z,7.50
2023-03-27T00:54:34.795Z,7.70
2023-03-27T00:57:07.175Z,6.90
2023-03-27T00:59:40.656Z,7.40
2023-03-27T01:02:10.286Z,7.50
2023-03-27T01:04:39.470Z,7.60
2023-03-27T01:07:08.655Z,7.30
2023-03-27T01:09:36.434Z,7.50
2023-03-27T01:12:17.997Z,7.50
2023-03-27T01:14:58.336Z,7.10
2023-03-27T01:17:40.588Z,7.20
2023-03-27T01:20:41.069Z,7.10
2023-03-27T01:23:59.925Z,7.30
2023-03-27T01:26:58.509Z,7.10
2023-03-27T01:29:37.206Z,7.30
2023-03-27T01:32:31.735Z,7.20
2023-03-27T01:35:27.353Z,7.30
2023-03-27T01:38:39.824Z,7.20
2023-03-27T01:41:12.731Z,7.20
2023-03-27T01:43:47.128Z,7.10
2023-03-27T01:46:21.446Z,7.30
2023-03-27T01:48:53.897Z,7.30
2023-03-27T01:51:26.371Z,6.80
2023-03-27T01:53:59.404Z,7.40
2023-03-27T01:56:33.945Z,7.00
2023-03-27T01:59:07.171Z,7.10
2023-03-27T02:01:38.674Z,7.10
2023-03-27T02:04:11.999Z,7.30
2023-03-27T02:06:43.816Z,7.60
2023-03-27T02:09:15.855Z,7.10
2023-03-27T02:11:49.814Z,7.20
2023-03-27T02:14:21.394Z,7.00
2023-03-27T02:16:53.598Z,6.50
2023-03-27T02:19:24.380Z,6.80
2023-03-27T02:21:52.109Z,7.00
2023-03-27T02:24:20.317Z,6.60
2023-03-27T02:26:56.784Z,6.70
2023-03-27T02:29:45.538Z,6.60
2023-03-27T02:32:26.209Z,6.60
2023-03-27T02:35:08.140Z,6.70
2023-03-27T02:37:46.547Z,6.80
2023-03-27T02:40:26.604Z,6.30
2023-03-27T02:43:06.478Z,6.10
2023-03-27T02:45:44.009Z,6.60
2023-03-27T02:48:16.205Z,6.70
2023-03-27T02:50:49.107Z,6.50
2023-03-27T02:53:21.071Z,6.50
2023-03-27T02:55:53.550Z,6.10
2023-03-27T02:58:30.656Z,6.20
2023-03-27T03:01:00.818Z,6.20
2023-03-27T03:03:33.553Z,6.00
2023-03-27T03:06:04.347Z,6.10
2023-03-27T03:08:38.125Z,6.10
2023-03-27T03:11:08.293Z,5.80
2023-03-27T03:13:37.626Z,5.50
2023-03-27T03:16:06.167Z,5.60
2023-03-27T03:18:33.908Z,5.30
2023-03-27T03:21:01.802Z,4.90
2023-03-27T03:23:29.541Z,5.30
2023-03-27T03:25:57.491Z,5.20
2023-03-27T03:28:26.831Z,5.20
2023-03-27T03:30:58.881Z,5.30
2023-03-27T03:33:27.880Z,5.20
2023-03-27T03:35:58.857Z,5.20
2023-03-27T03:38:27.083Z,5.00
2023-03-27T03:40:55.973Z,5.10
2023-03-27T03:43:25.478Z,5.20
2023-03-27T03:45:55.266Z,5.00
2023-03-27T03:48:23.976Z,5.10
2023-03-27T03:50:51.710Z,4.80
2023-03-27T03:53:21.429Z,5.10
2023-03-27T03:55:52.125Z,5.00
2023-03-27T03:58:19.893Z,4.90
2023-03-27T04:00:47.700Z,4.90
2023-03-27T04:03:16.902Z,4.80
2023-03-27T04:05:45.476Z,4.90
2023-03-27T04:08:13.662Z,4.70
2023-03-27T04:10:42.211Z,4.70
2023-03-27T04:13:10.048Z,4.80
2023-03-27T04:15:37.945Z,4.80
2023-03-27T04:18:06.288Z,4.70
2023-03-27T04:20:35.718Z,4.70
2023-03-27T04:23:04.013Z,4.70
2023-03-27T04:25:32.040Z,4.70
2023-03-27T04:28:02.078Z,4.70
2023-03-27T04:30:29.929Z,4.50
2023-03-27T04:32:59.859Z,4.60
2023-03-27T04:35:27.904Z,4.70
2023-03-27T04:37:57.022Z,4.60
2023-03-27T04:40:25.387Z,4.60
2023-03-27T04:42:55.816Z,4.40
2023-03-27T04:45:25.634Z,4.60
2023-03-27T04:47:54.495Z,3.70
2023-03-27T04:50:22.599Z,3.90
2023-03-27T04:52:51.775Z,4.50
2023-03-27T04:55:22.938Z,4.40
2023-03-27T04:57:50.770Z,4.20
2023-03-27T05:00:19.763Z,3.90
2023-03-27T05:02:48.469Z,4.50
2023-03-27T05:05:18.396Z,4.60
2023-03-27T05:07:47.252Z,4.50
2023-03-27T05:10:17.147Z,4.50
2023-03-27T05:12:52.992Z,4.20
2023-03-27T05:15:22.147Z,4.50
2023-03-27T05:17:54.166Z,4.20
2023-03-27T05:20:22.902Z,4.50
2023-03-27T05:22:53.410Z,3.60
2023-03-27T05:25:21.209Z,4.20
2023-03-27T05:27:51.542Z,4.20
2023-03-27T05:30:21.829Z,4.10
2023-03-27T05:32:52.449Z,3.50
2023-03-27T05:35:22.477Z,4.00
2023-03-27T05:37:52.356Z,4.20
2023-03-27T05:40:22.259Z,4.40
2023-03-27T05:42:52.364Z,4.40
2023-03-27T05:45:20.528Z,4.50
2023-03-27T05:47:50.669Z,4.30
2023-03-27T05:50:20.379Z,4.30
2023-03-27T05:52:48.694Z,4.50
2023-03-27T05:55:16.623Z,4.40
2023-03-27T05:57:44.363Z,4.30
2023-03-27T06:00:16.313Z,4.40
2023-03-27T06:02:44.803Z,4.30
2023-03-27T06:05:15.232Z,4.10
2023-03-27T06:07:43.636Z,4.10
2023-03-27T06:10:14.418Z,4.00
2023-03-27T06:12:43.241Z,4.40
2023-03-27T06:15:14.488Z,4.50
2023-03-27T06:17:44.250Z,4.60
2023-03-27T06:20:14.943Z,4.60
2023-03-27T06:22:45.693Z,4.80
2023-03-27T06:25:13.536Z,5.10
2023-03-27T06:27:42.446Z,5.10
2023-03-27T06:30:11.100Z,5.20
2023-03-27T06:32:44.942Z,5.00
2023-03-27T06:35:14.671Z,5.10
2023-03-27T06:37:45.884Z,5.10
2023-03-27T06:40:22.778Z,5.20
2023-03-27T06:42:52.674Z,5.40
2023-03-27T06:45:20.973Z,6.00
2023-03-27T06:47:54.766Z,6.20
2023-03-27T06:50:25.150Z,6.50
2023-03-27T06:52:53.293Z,6.90
2023-03-27T06:55:23.442Z,7.10
2023-03-27T06:57:53.487Z,6.90
2023-03-27T07:00:25.713Z,7.30
2023-03-27T07:02:56.980Z,7.20
2023-03-27T07:05:25.362Z,7.80
2023-03-27T07:07:54.050Z,7.70
2023-03-27T07:10:22.393Z,7.50
2023-03-27T07:12:51.995Z,8.80
2023-03-27T07:15:21.123Z,10.40
2023-03-27T07:17:54.123Z,11.70
2023-03-27T07:20:24.100Z,13.00
2023-03-27T07:22:52.106Z,13.70
2023-03-27T07:25:19.823Z,14.50
2023-03-27T07:27:47.787Z,14.70
2023-03-27T07:30:16.216Z,15.40
2023-03-27T07:32:45.220Z,15.70
2023-03-27T07:35:13.313Z,16.10
2023-03-27T07:37:42.651Z,16.40
2023-03-27T07:40:13.479Z,16.50
2023-03-27T07:42:46.091Z,16.10
2023-03-27T07:45:14.125Z,14.40
2023-03-27T07:47:42.637Z,12.60
2023-03-27T07:50:11.581Z,11.20
2023-03-27T07:52:43.491Z,10.40
2023-03-27T07:55:14.435Z,9.80
2023-03-27T07:57:59.969Z,9.60
2023-03-27T08:00:31.709Z,9.50
2023-03-27T08:03:07.912Z,9.00
2023-03-27T08:05:38.551Z,8.70
2023-03-27T08:08:08.330Z,9.80
2023-03-27T08:10:39.832Z,11.00
2023-03-27T08:13:10.606Z,11.80
2023-03-27T08:15:40.494Z,11.00
2023-03-27T08:18:12.084Z,11.40
2023-03-27T08:20:42.997Z,11.80
2023-03-27T08:23:12.747Z,12.10
2023-03-27T08:25:43.564Z,12.10
2023-03-27T08:28:13.179Z,13.10
2023-03-27T08:30:43.381Z,14.10
2023-03-27T08:33:13.084Z,14.70
2023-03-27T08:35:42.545Z,15.30
2023-03-27T08:38:23.735Z,14.90
2023-03-27T08:40:59.761Z,15.70
2023-03-27T08:43:32.418Z,16.50
2023-03-27T08:46:05.690Z,16.60
2023-03-27T08:48:42.117Z,14.50
2023-03-27T08:51:16.785Z,14.00
2023-03-27T08:53:52.750Z,12.80
2023-03-27T08:56:25.618Z,13.10
2023-03-27T08:58:54.426Z,14.20
2023-03-27T09:01:29.366Z,14.80
2023-03-27T09:04:03.666Z,16.00
2023-03-27T09:06:38.318Z,15.50
2023-03-27T09:09:13.902Z,14.30
2023-03-27T09:11:54.519Z,12.90
2023-03-27T09:14:30.828Z,13.00
2023-03-27T09:17:02.414Z,13.40
2023-03-27T09:19:38.086Z,12.50
2023-03-27T09:22:08.935Z,12.70
2023-03-27T09:24:41.929Z,14.40
2023-03-27T09:27:18.569Z,15.80
2023-03-27T09:29:49.831Z,15.90
2023-03-27T09:32:17.622Z,15.20
2023-03-27T09:34:45.937Z,14.50
2023-03-27T09:37:17.614Z,13.50
2023-03-27T09:39:50.914Z,12.80
2023-03-27T09:42:24.844Z,12.60
2023-03-27T09:44:56.744Z,12.80
2023-03-27T09:47:31.610Z,13.20
2023-03-27T09:50:13.575Z,13.10
2023-03-27T09:52:43.192Z,12.30
2023-03-27T09:55:24.893Z,12.30
2023-03-27T09:57:58.865Z,11.40
2023-03-27T10:00:30.721Z,11.30
2023-03-27T10:03:03.880Z,11.20
2023-03-27T10:05:32.553Z,10.90
2023-03-27T10:08:01.286Z,10.90
2023-03-27T10:10:32.391Z,10.60
2023-03-27T10:13:03.291Z,10.40
2023-03-27T10:15:36.402Z,10.50
2023-03-27T10:18:08.102Z,11.40
2023-03-27T10:20:36.410Z,12.30
2023-03-27T10:23:08.909Z,13.00
2023-03-27T10:25:39.924Z,13.70
2023-03-27T10:28:18.422Z,13.60
2023-03-27T10:30:46.946Z,13.30
2023-03-27T10:33:14.766Z,12.80
2023-03-27T10:35:45.224Z,12.00
2023-03-27T10:38:15.019Z,12.30
2023-03-27T10:40:45.340Z,12.90
2023-03-27T10:43:18.956Z,13.60
2023-03-27T10:45:50.433Z,14.90
2023-03-27T10:48:31.576Z,15.70
2023-03-27T10:51:03.308Z,16.10
2023-03-27T10:53:37.328Z,16.90
2023-03-27T10:56:15.175Z,17.30
2023-03-27T10:58:50.237Z,17.80
2023-03-27T11:01:26.288Z,17.20
2023-03-27T11:04:00.486Z,17.20
2023-03-27T11:06:34.095Z,17.70
2023-03-27T11:09:06.180Z,18.10
2023-03-27T11:11:37.868Z,18.10
2023-03-27T11:14:14.891Z,16.90
2023-03-27T11:16:46.593Z,16.10
2023-03-27T11:19:34.634Z,14.70
2023-03-27T11:22:06.828Z,13.80
2023-03-27T11:24:39.252Z,12.80
2023-03-27T11:27:14.688Z,12.10
2023-03-27T11:29:51.055Z,11.70
2023-03-27T11:32:28.071Z,10.70
2023-03-27T11:35:03.930Z,9.70
2023-03-27T11:37:40.593Z,9.30
2023-03-27T11:40:14.293Z,9.10
2023-03-27T11:42:44.375Z,10.30
2023-03-27T11:45:15.952Z,11.10
2023-03-27T11:47:53.618Z,12.00
2023-03-27T11:50:30.406Z,12.70
2023-03-27T11:53:27.811Z,13.50
2023-03-27T11:56:15.416Z,14.60
2023-03-27T11:59:01.436Z,14.60
2023-03-27T12:01:37.580Z,13.70
2023-03-27T12:04:17.764Z,13.50
2023-03-27T12:06:51.991Z,14.00
2023-03-27T12:09:41.464Z,13.60
2023-03-27T12:12:30.348Z,13.60
2023-03-27T12:15:12.859Z,13.00
2023-03-27T12:17:52.522Z,12.60
2023-03-27T12:20:53.027Z,12.80
2023-03-27T12:23:41.784Z,12.70
2023-03-27T12:26:40.053Z,13.00
2023-03-27T12:29:23.651Z,13.50
2023-03-27T12:32:13.040Z,13.70
2023-03-27T12:34:53.146Z,13.70
2023-03-27T12:37:25.989Z,13.40
2023-03-27T12:39:55.354Z,13.20
2023-03-27T12:42:44.252Z,13.60
2023-03-27T12:45:18.009Z,14.00
2023-03-27T12:47:46.914Z,14.00
2023-03-27T12:50:22.199Z,14.60
2023-03-27T12:52:53.047Z,14.90
2023-03-27T12:55:33.647Z,14.30
2023-03-27T12:58:03.419Z,13.50
2023-03-27T13:00:32.957Z,12.90
2023-03-27T13:03:45.346Z,12.20
2023-03-27T13:06:37.370Z,11.30
2023-03-27T13:09:35.280Z,10.80
2023-03-27T13:12:19.057Z,10.60
2023-03-27T13:15:22.949Z,10.70
2023-03-27T13:18:10.791Z,11.30
2023-03-27T13:20:48.131Z,12.50
2023-03-27T13:23:32.825Z,12.70
2023-03-27T13:26:14.218Z,13.30
2023-03-27T13:28:48.311Z,12.90
2023-03-27T13:31:58.582Z,12.80
2023-03-27T13:34:35.026Z,12.80
2023-03-27T13:37:39.622Z,12.50
2023-03-27T13:40:24.404Z,12.30
2023-03-27T13:42:55.917Z,12.70
2023-03-27T13:45:26.646Z,12.50
2023-03-27T13:48:20.760Z,12.90
2023-03-27T13:51:09.492Z,12.60
2023-03-27T13:54:00.127Z,12.90
2023-03-27T13:56:42.262Z,12.60
2023-03-27T13:59:40.154Z,11.70
2023-03-27T14:02:39.629Z,10.70
2023-03-27T14:05:24.928Z,9.70
2023-03-27T14:08:24.586Z,9.80
2023-03-27T14:11:16.700Z,9.00
2023-03-27T14:14:01.038Z,9.40
2023-03-27T14:16:52.089Z,9.80
2023-03-27T14:19:47.067Z,9.90
2023-03-27T14:22:20.364Z,10.20
2023-03-27T14:24:55.915Z,10.20
2023-03-27T14:27:26.274Z,10.30
2023-03-27T14:30:19.219Z,10.20
2023-03-27T14:32:48.832Z,10.20
2023-03-27T14:35:35.866Z,10.30
2023-03-27T14:38:07.592Z,10.90
2023-03-27T14:40:39.258Z,11.30
2023-03-27T14:43:08.126Z,11.10
2023-03-27T14:45:40.226Z,11.00
2023-03-27T14:48:15.212Z,10.80
2023-03-27T14:50:43.871Z,11.30
2023-03-27T14:53:14.801Z,11.30
2023-03-27T14:55:42.645Z,11.30
2023-03-27T14:58:18.239Z,11.50
2023-03-27T15:00:52.154Z,11.50
2023-03-27T15:03:23.549Z,11.50
2023-03-27T15:05:57.296Z,11.60
2023-03-27T15:08:26.725Z,11.40
2023-03-27T15:10:55.410Z,11.30
2023-03-27T15:13:26.382Z,11.00
2023-03-27T15:15:59.852Z,10.70
2023-03-27T15:18:32.699Z,10.90
2023-03-27T15:21:04.996Z,10.70
2023-03-27T15:23:37.822Z,10.60
2023-03-27T15:26:10.469Z,10.40
2023-03-27T15:28:41.376Z,10.10
2023-03-27T15:31:11.161Z,10.30
2023-03-27T15:33:46.480Z,10.00
2023-03-27T15:36:26.147Z,10.20
2023-03-27T15:38:55.038Z,9.90
2023-03-27T15:41:42.445Z,10.00
2023-03-27T15:44:16.353Z,9.60
2023-03-27T15:46:57.772Z,10.10
2023-03-27T15:49:29.685Z,10.40
2023-03-27T15:51:58.530Z,10.60
2023-03-27T15:54:32.195Z,10.50
2023-03-27T15:57:10.417Z,10.70
2023-03-27T15:59:51.344Z,10.90
2023-03-27T16:02:24.654Z,10.80
2023-03-27T16:04:55.451Z,11.00
2023-03-27T16:07:29.067Z,11.00
2023-03-27T16:10:02.220Z,10.90
2023-03-27T16:12:33.691Z,10.60
2023-03-27T16:15:04.300Z,10.40
2023-03-27T16:17:44.690Z,10.20
2023-03-27T16:20:33.326Z,10.20
2023-03-27T16:23:02.216Z,10.00
2023-03-27T16:25:29.999Z,10.10
2023-03-27T16:27:58.585Z,10.00
2023-03-27T16:30:29.847Z,10.10
2023-03-27T16:32:59.331Z,10.00
2023-03-27T16:35:27.673Z,10.00
2023-03-27T16:37:56.354Z,10.20
2023-03-27T16:40:24.371Z,10.10
2023-03-27T16:42:52.173Z,10.30
2023-03-27T16:45:19.919Z,9.60
2023-03-27T16:47:50.827Z,9.40
2023-03-27T16:50:24.482Z,9.50
2023-03-27T16:52:52.524Z,9.40
2023-03-27T16:55:20.483Z,9.20
2023-03-27T16:57:48.486Z,9.20
2023-03-27T17:00:18.501Z,9.20
2023-03-27T17:02:46.941Z,9.20
2023-03-27T17:05:15.590Z,8.90
2023-03-27T17:07:46.735Z,9.00
2023-03-27T17:10:14.797Z,8.70
2023-03-27T17:12:42.541Z,8.80
2023-03-27T17:15:11.451Z,8.60
2023-03-27T17:17:39.343Z,8.50
2023-03-27T17:20:09.174Z,8.70
2023-03-27T17:22:36.969Z,8.60
2023-03-27T17:25:07.085Z,8.50
2023-03-27T17:27:35.103Z,8.40
2023-03-27T17:30:03.699Z,8.60
2023-03-27T17:32:32.324Z,8.90
2023-03-27T17:35:00.436Z,8.70
2023-03-27T17:37:28.411Z,8.60
2023-03-27T17:39:56.539Z,8.60
2023-03-27T17:42:25.971Z,8.50
2023-03-27T17:44:53.703Z,8.40
2023-03-27T17:47:21.630Z,8.40
2023-03-27T17:49:49.427Z,8.30
2023-03-27T17:52:18.001Z,8.60
2023-03-27T17:54:45.900Z,8.40
2023-03-27T17:57:13.716Z,8.40
2023-03-27T17:59:43.024Z,8.20
2023-03-27T18:02:16.824Z,8.10
2023-03-27T18:04:45.187Z,8.00
2023-03-27T18:07:12.943Z,8.20
2023-03-27T18:09:40.752Z,7.80
2023-03-27T18:12:08.674Z,8.00
2023-03-27T18:14:36.927Z,7.80
2023-03-27T18:17:06.179Z,7.60
2023-03-27T18:19:34.156Z,7.50
2023-03-27T18:22:02.429Z,7.80
2023-03-27T18:24:30.578Z,7.60
2023-03-27T18:26:58.428Z,7.80
2023-03-27T18:29:26.341Z,7.60
2023-03-27T18:31:54.968Z,7.70
2023-03-27T18:34:24.329Z,7.60
2023-03-27T18:36:52.589Z,7.70
2023-03-27T18:39:20.545Z,7.90
2023-03-27T18:41:48.886Z,7.90
2023-03-27T18:44:18.130Z,7.50
2023-03-27T18:46:45.950Z,7.50
2023-03-27T18:49:24.170Z,7.80
2023-03-27T18:51:53.803Z,7.50
2023-03-27T18:54:21.598Z,7.50
2023-03-27T18:56:49.630Z,7.40
2023-03-27T18:59:18.010Z,7.10
2023-03-27T19:01:45.947Z,7.20
2023-03-27T19:04:16.515Z,7.00
2023-03-27T19:06:46.080Z,7.10
2023-03-27T19:09:16.170Z,6.80
2023-03-27T19:11:44.668Z,6.90
2023-03-27T19:14:12.734Z,7.00
2023-03-27T19:16:40.753Z,7.00
2023-03-27T19:19:08.620Z,6.90
2023-03-27T19:21:36.561Z,6.70
2023-03-27T19:24:04.713Z,6.30
2023-03-27T19:26:34.912Z,6.50
2023-03-27T19:29:02.736Z,6.20
2023-03-27T19:31:31.139Z,6.30
2023-03-27T19:33:58.966Z,6.60
2023-03-27T19:36:27.019Z,6.30
2023-03-27T19:38:54.878Z,6.20
2023-03-27T19:41:22.854Z,6.50
2023-03-27T19:43:51.990Z,6.30
2023-03-27T19:46:19.909Z,6.60
2023-03-27T19:48:49.596Z,6.40
2023-03-27T19:51:17.753Z,6.30
2023-03-27T19:53:45.613Z,6.50
2023-03-27T19:56:13.975Z,6.30
2023-03-27T19:58:41.663Z,6.30
2023-03-27T20:01:11.235Z,6.10
2023-03-27T20:03:39.881Z,6.20
2023-03-27T20:06:13.307Z,6.00
2023-03-27T20:08:42.461Z,5.90
2023-03-27T20:11:10.260Z,5.90
2023-03-27T20:13:48.917Z,6.10
2023-03-27T20:16:24.560Z,5.90
2023-03-27T20:19:03.646Z,5.90
2023-03-27T20:21:33.626Z,5.80
2023-03-27T20:24:01.447Z,5.80
2023-03-27T20:26:29.768Z,6.00
2023-03-27T20:28:57.734Z,6.10
2023-03-27T20:31:27.048Z,5.90
2023-03-27T20:33:54.875Z,6.10
2023-03-27T20:36:23.737Z,5.70
2023-03-27T20:38:52.702Z,5.70
2023-03-27T20:41:21.698Z,5.80
2023-03-27T20:43:51.109Z,5.80
2023-03-27T20:46:18.983Z,5.80
2023-03-27T20:48:54.620Z,5.90
2023-03-27T20:51:24.823Z,5.90
2023-03-27T20:53:55.365Z,5.80
2023-03-27T20:56:23.881Z,5.70
2023-03-27T20:58:52.135Z,5.60
2023-03-27T21:01:20.190Z,5.60
2023-03-27T21:03:49.563Z,5.60
2023-03-27T21:06:19.932Z,5.30
2023-03-27T21:08:48.024Z,5.70
2023-03-27T21:11:16.062Z,5.60
2023-03-27T21:13:43.761Z,5.60
2023-03-27T21:16:11.709Z,5.70
2023-03-27T21:18:39.602Z,5.80
2023-03-27T21:21:08.847Z,5.60
2023-03-27T21:23:36.835Z,5.50
2023-03-27T21:26:04.650Z,5.50
2023-03-27T21:28:32.389Z,5.40
2023-03-27T21:31:00.663Z,5.40
2023-03-27T21:33:28.596Z,5.40
2023-03-27T21:35:56.501Z,5.40
2023-03-27T21:38:25.764Z,5.20
2023-03-27T21:40:53.662Z,5.50
2023-03-27T21:43:22.071Z,5.40
2023-03-27T21:45:49.952Z,5.40
2023-03-27T21:48:17.899Z,5.50
2023-03-27T21:50:45.865Z,5.30
2023-03-27T21:53:13.995Z,5.40
2023-03-27T21:55:43.199Z,5.30
2023-03-27T21:58:11.087Z,5.20
2023-03-27T22:00:38.837Z,5.40
2023-03-27T22:03:06.681Z,5.50
2023-03-27T22:05:37.766Z,5.10
2023-03-27T22:08:06.490Z,5.40
2023-03-27T22:10:34.673Z,5.50
2023-03-27T22:13:04.011Z,5.20
2023-03-27T22:15:31.931Z,5.00
2023-03-27T22:17:59.727Z,5.10
2023-03-27T22:20:28.418Z,5.30
2023-03-27T22:22:56.216Z,5.10
2023-03-27T22:25:24.032Z,5.40
2023-03-27T22:27:51.845Z,5.10
2023-03-27T22:30:21.200Z,5.10
2023-03-27T22:32:48.932Z,5.10
2023-03-27T22:35:16.872Z,5.40
2023-03-27T22:37:44.709Z,5.00
2023-03-27T22:40:13.302Z,5.30
2023-03-27T22:42:41.033Z,5.10
2023-03-27T22:45:09.713Z,4.80
2023-03-27T22:47:39.047Z,4.90
2023-03-27T22:50:07.592Z,5.00
2023-03-27T22:52:35.487Z,4.90
2023-03-27T22:55:03.211Z,4.70
2023-03-27T22:57:31.244Z,4.80
2023-03-27T22:59:58.991Z,4.60
2023-03-27T23:02:26.861Z,4.50
2023-03-27T23:04:55.987Z,4.40
2023-03-27T23:07:23.702Z,4.10
2023-03-27T23:09:51.733Z,4.10
2023-03-27T23:12:19.487Z,3.50
2023-03-27T23:14:47.233Z,4.20
2023-03-27T23:17:15.008Z,4.00
2023-03-27T23:19:42.749Z,4.20
2023-03-27T23:22:11.829Z,4.30
2023-03-27T23:24:39.548Z,4.20
2023-03-27T23:27:08.328Z,4.10
2023-03-27T23:29:36.250Z,4.10
2023-03-27T23:32:04.021Z,4.20
2023-03-27T23:34:31.765Z,4.20
2023-03-27T23:36:59.646Z,4.10
2023-03-27T23:39:28.798Z,4.20
2023-03-27T23:41:56.515Z,4.20
2023-03-27T23:44:24.219Z,4.40
2023-03-27T23:46:51.979Z,4.10
2023-03-27T23:49:19.713Z,3.90
2023-03-27T23:51:47.526Z,3.50
2023-03-27T23:54:15.288Z,4.10
2023-03-27T23:56:44.412Z,4.00
2023-03-27T23:59:12.237Z,3.90
